createdAt,value
2023-02-27T00:02:17.803Z,62.73
2023-02-27T00:04:44.009Z,62.44
2023-02-27T00:07:10.135Z,62.29
2023-02-27T00:09:36.229Z,62.73
2023-02-27T00:12:02.360Z,62.23
2023-02-27T00:14:28.513Z,62.53
2023-02-27T00:16:54.608Z,62.47
2023-02-27T00:19:20.761Z,62.49
2023-02-27T00:21:46.939Z,62.45
2023-02-27T00:24:13.056Z,62.58
2023-02-27T00:26:39.188Z,62.59
2023-02-27T00:29:05.301Z,62.57
2023-02-27T00:31:31.428Z,62.62
2023-02-27T00:33:57.667Z,62.70
2023-02-27T00:36:23.905Z,62.47
2023-02-27T00:38:50.070Z,62.74
2023-02-27T00:41:17.400Z,62.61
2023-02-27T00:43:43.596Z,62.55
2023-02-27T00:46:09.777Z,62.25
2023-02-27T00:48:35.954Z,62.57
2023-02-27T00:51:04.896Z,62.53
2023-02-27T00:53:31.001Z,62.80
2023-02-27T00:55:57.200Z,62.58
2023-02-27T00:58:23.303Z,62.62
2023-02-27T01:00:49.537Z,62.79
2023-02-27T01:03:15.794Z,62.53
2023-02-27T01:05:42.001Z,62.46
2023-02-27T01:08:08.165Z,62.64
2023-02-27T01:10:34.282Z,62.42
2023-02-27T01:13:00.388Z,62.64
2023-02-27T01:15:26.494Z,62.69
2023-02-27T01:17:52.616Z,62.55
2023-02-27T01:20:18.715Z,62.53
2023-02-27T01:22:44.817Z,62.43
2023-02-27T01:25:10.949Z,62.71
2023-02-27T01:27:37.040Z,62.43
2023-02-27T01:30:03.135Z,62.46
2023-02-27T01:32:29.302Z,62.81
2023-02-27T01:34:55.488Z,62.80
2023-02-27T01:37:21.596Z,62.85
2023-02-27T01:39:47.722Z,62.81
2023-02-27T01:42:13.869Z,62.53
2023-02-27T01:44:40.048Z,62.78
2023-02-27T01:47:06.190Z,62.50
2023-02-27T01:49:32.296Z,62.55
2023-02-27T01:51:58.411Z,62.83
2023-02-27T01:54:24.536Z,62.82
2023-02-27T01:56:50.632Z,62.76
2023-02-27T01:59:16.731Z,62.58
2023-02-27T02:01:43.243Z,62.91
2023-02-27T02:04:09.450Z,63.03
2023-02-27T02:06:35.570Z,62.82
2023-02-27T02:09:04.980Z,62.84
2023-02-27T02:11:31.183Z,62.88
2023-02-27T02:13:57.368Z,62.75
2023-02-27T02:16:23.619Z,62.87
2023-02-27T02:18:49.782Z,62.81
2023-02-27T02:21:15.921Z,62.52
2023-02-27T02:23:42.088Z,62.85
2023-02-27T02:26:08.957Z,62.69
2023-02-27T02:28:35.164Z,62.81
2023-02-27T02:31:05.674Z,62.93
2023-02-27T02:33:31.949Z,62.83
2023-02-27T02:35:58.476Z,62.75
2023-02-27T02:38:25.544Z,62.94
2023-02-27T02:40:51.960Z,62.86
2023-02-27T02:43:18.154Z,62.91
2023-02-27T02:45:44.335Z,62.83
2023-02-27T02:48:10.694Z,62.87
2023-02-27T02:50:38.305Z,62.86
2023-02-27T02:53:04.485Z,62.97
2023-02-27T02:55:30.631Z,62.56
2023-02-27T02:58:00.382Z,62.78
2023-02-27T03:00:26.566Z,62.51
2023-02-27T03:02:52.760Z,62.73
2023-02-27T03:05:20.593Z,63.00
2023-02-27T03:07:46.875Z,62.64
2023-02-27T03:10:13.054Z,62.93
2023-02-27T03:12:39.441Z,62.89
2023-02-27T03:15:05.672Z,62.75
2023-02-27T03:17:31.828Z,63.04
2023-02-27T03:20:01.066Z,62.70
2023-02-27T03:22:27.683Z,62.96
2023-02-27T03:24:56.314Z,62.92
2023-02-27T03:27:22.844Z,62.85
2023-02-27T03:29:50.450Z,62.59
2023-02-27T03:32:16.753Z,62.61
2023-02-27T03:34:42.977Z,62.71
2023-02-27T03:37:09.187Z,62.97
2023-02-27T03:39:37.899Z,62.97
2023-02-27T03:42:04.095Z,63.04
2023-02-27T03:44:30.341Z,63.06
2023-02-27T03:46:56.476Z,62.99
2023-02-27T03:49:22.731Z,62.83
2023-02-27T03:51:49.552Z,62.91
2023-02-27T03:54:19.061Z,62.92
2023-02-27T03:56:45.174Z,62.96
2023-02-27T03:59:11.338Z,63.00
2023-02-27T04:01:37.513Z,62.86
2023-02-27T04:04:03.665Z,62.67
2023-02-27T04:06:32.180Z,62.99
2023-02-27T04:08:58.497Z,62.70
2023-02-27T04:11:29.705Z,63.08
2023-02-27T04:13:55.921Z,62.78
2023-02-27T04:16:22.063Z,62.62
2023-02-27T04:18:48.191Z,63.04
2023-02-27T04:21:14.745Z,62.90
2023-02-27T04:23:40.854Z,63.00
2023-02-27T04:26:06.959Z,62.81
2023-02-27T04:28:33.094Z,62.97
2023-02-27T04:30:59.231Z,63.09
2023-02-27T04:33:25.338Z,62.73
2023-02-27T04:35:51.536Z,62.95
2023-02-27T04:38:17.644Z,62.66
2023-02-27T04:40:43.743Z,62.84
2023-02-27T04:43:10.103Z,63.14
2023-02-27T04:45:36.260Z,63.07
2023-02-27T04:48:02.390Z,62.79
2023-02-27T04:50:28.499Z,62.67
2023-02-27T04:52:54.578Z,62.80
2023-02-27T04:55:20.666Z,63.01
2023-02-27T04:57:46.775Z,62.93
2023-02-27T05:00:12.878Z,63.00
2023-02-27T05:02:39.148Z,62.94
2023-02-27T05:05:05.397Z,62.97
2023-02-27T05:07:31.534Z,62.90
2023-02-27T05:09:57.630Z,63.11
2023-02-27T05:12:24.272Z,62.76
2023-02-27T05:14:50.375Z,63.11
2023-02-27T05:17:16.484Z,62.65
2023-02-27T05:19:42.638Z,62.97
2023-02-27T05:22:08.730Z,62.87
2023-02-27T05:24:34.837Z,62.99
2023-02-27T05:27:00.951Z,63.08
2023-02-27T05:29:27.043Z,62.87
2023-02-27T05:31:53.257Z,62.86
2023-02-27T05:34:19.441Z,63.05
2023-02-27T05:36:45.540Z,62.66
2023-02-27T05:39:11.657Z,62.82
2023-02-27T05:41:37.770Z,62.95
2023-02-27T05:44:03.863Z,62.88
2023-02-27T05:46:29.958Z,62.98
2023-02-27T05:48:56.070Z,62.77
2023-02-27T05:51:22.220Z,62.78
2023-02-27T05:53:48.310Z,62.71
2023-02-27T05:56:14.439Z,62.97
2023-02-27T05:58:40.533Z,63.09
2023-02-27T06:01:06.650Z,63.20
2023-02-27T06:03:32.824Z,63.14
2023-02-27T06:05:58.948Z,63.00
2023-02-27T06:08:25.062Z,63.15
2023-02-27T06:10:51.199Z,63.04
2023-02-27T06:13:17.314Z,62.90
2023-02-27T06:15:43.421Z,62.99
2023-02-27T06:18:09.572Z,63.08
2023-02-27T06:20:35.673Z,62.77
2023-02-27T06:23:01.801Z,63.10
2023-02-27T06:25:27.923Z,63.03
2023-02-27T06:27:54.025Z,63.25
2023-02-27T06:30:20.115Z,63.09
2023-02-27T06:32:46.234Z,62.79
2023-02-27T06:35:12.327Z,63.24
2023-02-27T06:37:38.433Z,63.15
2023-02-27T06:40:04.556Z,63.15
2023-02-27T06:42:33.410Z,62.88
2023-02-27T06:44:59.504Z,63.05
2023-02-27T06:47:25.637Z,62.88
2023-02-27T06:49:51.736Z,63.16
2023-02-27T06:52:17.849Z,63.25
2023-02-27T06:54:43.975Z,62.85
2023-02-27T06:57:10.073Z,63.16
2023-02-27T06:59:36.170Z,62.92
2023-02-27T07:02:02.282Z,63.24
2023-02-27T07:04:28.458Z,63.09
2023-02-27T07:07:36.367Z,63.02
2023-02-27T07:09:40.690Z,63.05
2023-02-27T07:12:06.844Z,63.20
2023-02-27T07:14:32.954Z,63.28
2023-02-27T07:16:59.089Z,62.88
2023-02-27T07:19:25.184Z,63.05
2023-02-27T07:21:51.290Z,63.23
2023-02-27T07:24:17.478Z,63.04
2023-02-27T07:26:43.581Z,63.03
2023-02-27T07:29:09.673Z,63.07
2023-02-27T07:31:36.071Z,63.03
2023-02-27T07:34:02.238Z,63.03
2023-02-27T07:36:28.604Z,63.01
2023-02-27T07:38:54.873Z,62.95
2023-02-27T07:41:29.921Z,63.23
2023-02-27T07:43:56.686Z,63.34
2023-02-27T07:46:22.841Z,62.96
2023-02-27T07:48:48.997Z,63.09
2023-02-27T07:51:15.201Z,63.30
2023-02-27T07:53:41.383Z,62.98
2023-02-27T07:56:07.594Z,62.90
2023-02-27T07:58:33.802Z,63.14
2023-02-27T08:00:59.968Z,63.04
2023-02-27T08:03:26.071Z,63.00
2023-02-27T08:05:52.205Z,62.96
2023-02-27T08:08:18.374Z,63.28
2023-02-27T08:10:44.513Z,63.15
2023-02-27T08:13:10.639Z,63.22
2023-02-27T08:15:36.746Z,63.10
2023-02-27T08:18:02.848Z,63.36
2023-02-27T08:20:29.372Z,63.22
2023-02-27T08:22:55.467Z,63.10
2023-02-27T08:25:21.576Z,62.95
2023-02-27T08:27:47.756Z,63.09
2023-02-27T08:30:13.871Z,63.25
2023-02-27T08:32:40.452Z,63.10
2023-02-27T08:35:06.630Z,62.97
2023-02-27T08:37:32.808Z,62.89
2023-02-27T08:39:58.943Z,63.32
2023-02-27T08:42:27.027Z,62.79
2023-02-27T08:44:53.247Z,63.29
2023-02-27T08:47:19.368Z,62.95
2023-02-27T08:49:45.559Z,62.92
2023-02-27T08:52:11.711Z,63.00
2023-02-27T08:54:37.871Z,63.13
2023-02-27T08:57:03.998Z,62.98
2023-02-27T08:59:30.120Z,62.91
2023-02-27T09:01:56.226Z,62.94
2023-02-27T09:04:22.416Z,63.28
2023-02-27T09:06:48.558Z,62.92
2023-02-27T09:09:14.745Z,63.13
2023-02-27T09:11:40.866Z,62.86
2023-02-27T09:14:07.054Z,62.93
2023-02-27T09:16:33.171Z,63.20
2023-02-27T09:18:59.376Z,62.88
2023-02-27T09:21:25.504Z,63.00
2023-02-27T09:23:51.615Z,62.96
2023-02-27T09:26:17.783Z,63.04
2023-02-27T09:28:43.890Z,62.82
2023-02-27T09:31:10.024Z,62.93
2023-02-27T09:33:36.596Z,62.98
2023-02-27T09:36:02.830Z,63.14
2023-02-27T09:38:28.966Z,62.87
2023-02-27T09:40:55.121Z,63.18
2023-02-27T09:43:21.276Z,62.85
2023-02-27T09:45:47.456Z,63.13
2023-02-27T09:48:13.603Z,63.29
2023-02-27T09:50:39.745Z,62.91
2023-02-27T09:53:05.927Z,62.89
2023-02-27T09:55:32.063Z,63.03
2023-02-27T09:57:58.160Z,62.84
2023-02-27T10:00:24.443Z,62.93
2023-02-27T10:02:50.577Z,62.91
2023-02-27T10:05:16.785Z,63.29
2023-02-27T10:07:42.922Z,62.91
2023-02-27T10:10:09.080Z,63.29
2023-02-27T10:12:35.197Z,63.04
2023-02-27T10:15:01.311Z,63.28
2023-02-27T10:17:27.435Z,63.14
2023-02-27T10:19:53.679Z,63.11
2023-02-27T10:22:19.944Z,62.83
2023-02-27T10:24:46.156Z,63.22
2023-02-27T10:27:12.271Z,62.84
2023-02-27T10:29:38.410Z,62.92
2023-02-27T10:32:04.630Z,62.87
2023-02-27T10:34:30.802Z,63.09
2023-02-27T10:36:56.918Z,63.08
2023-02-27T10:39:23.148Z,63.10
2023-02-27T10:41:49.330Z,62.66
2023-02-27T10:44:15.464Z,62.88
2023-02-27T10:46:41.746Z,63.16
2023-02-27T10:49:07.904Z,62.83
2023-02-27T10:51:34.059Z,63.12
2023-02-27T10:54:00.275Z,62.94
2023-02-27T10:56:26.894Z,62.96
2023-02-27T10:58:53.182Z,62.74
2023-02-27T11:01:19.337Z,62.97
2023-02-27T11:03:45.526Z,63.12
2023-02-27T11:06:11.732Z,62.80
2023-02-27T11:08:37.952Z,63.12
2023-02-27T11:11:04.157Z,62.79
2023-02-27T11:13:30.460Z,62.77
2023-02-27T11:15:56.694Z,63.12
2023-02-27T11:18:22.800Z,62.80
2023-02-27T11:20:48.969Z,62.64
2023-02-27T11:23:15.113Z,62.78
2023-02-27T11:25:41.219Z,62.77
2023-02-27T11:28:07.304Z,62.75
2023-02-27T11:30:33.487Z,62.77
2023-02-27T11:32:59.588Z,62.83
2023-02-27T11:35:25.713Z,62.86
2023-02-27T11:37:51.920Z,62.83
2023-02-27T11:40:18.026Z,62.79
2023-02-27T11:42:50.019Z,62.80
2023-02-27T11:45:16.134Z,63.19
2023-02-27T11:48:02.269Z,62.97
2023-02-27T11:50:28.444Z,62.84
2023-02-27T11:52:54.601Z,62.76
2023-02-27T11:55:20.777Z,62.75
2023-02-27T11:57:46.982Z,62.94
2023-02-27T12:00:13.225Z,62.99
2023-02-27T12:02:39.521Z,62.81
2023-02-27T12:05:05.703Z,63.06
2023-02-27T12:07:31.907Z,62.86
2023-02-27T12:09:58.030Z,63.10
2023-02-27T12:12:24.240Z,62.70
2023-02-27T12:14:50.619Z,62.75
2023-02-27T12:17:16.886Z,62.97
2023-02-27T12:19:43.179Z,63.00
2023-02-27T12:22:09.374Z,62.76
2023-02-27T12:24:35.582Z,62.67
2023-02-27T12:27:01.801Z,62.60
2023-02-27T12:29:28.403Z,62.64
2023-02-27T12:31:54.691Z,63.07
2023-02-27T12:34:21.324Z,62.66
2023-02-27T12:36:47.426Z,62.78
2023-02-27T12:39:13.619Z,62.82
2023-02-27T12:41:39.851Z,62.96
2023-02-27T12:44:06.071Z,62.90
2023-02-27T12:46:32.264Z,62.62
2023-02-27T12:48:58.391Z,62.75
2023-02-27T12:51:24.579Z,62.72
2023-02-27T12:53:50.775Z,62.85
2023-02-27T12:56:17.027Z,62.59
2023-02-27T12:58:43.134Z,62.58
2023-02-27T13:01:09.304Z,62.81
2023-02-27T13:03:35.608Z,62.63
2023-02-27T13:06:01.895Z,62.64
2023-02-27T13:08:28.075Z,62.93
2023-02-27T13:10:54.383Z,62.67
2023-02-27T13:13:20.550Z,62.83
2023-02-27T13:15:48.609Z,62.72
2023-02-27T13:18:14.880Z,62.59
2023-02-27T13:20:44.075Z,62.59
2023-02-27T13:23:10.226Z,62.46
2023-02-27T13:25:36.379Z,62.93
2023-02-27T13:28:02.579Z,62.77
2023-02-27T13:30:28.700Z,62.62
2023-02-27T13:32:55.048Z,62.93
2023-02-27T13:35:21.274Z,62.63
2023-02-27T13:37:47.516Z,62.56
2023-02-27T13:40:16.746Z,62.59
2023-02-27T13:42:44.060Z,62.95
2023-02-27T13:45:10.243Z,62.55
2023-02-27T13:47:36.554Z,62.87
2023-02-27T13:50:02.722Z,62.54
2023-02-27T13:52:28.906Z,62.69
2023-02-27T13:54:59.777Z,62.51
2023-02-27T13:57:26.095Z,62.64
2023-02-27T13:59:52.245Z,62.56
2023-02-27T14:02:18.470Z,62.50
2023-02-27T14:04:44.630Z,62.88
2023-02-27T14:07:10.803Z,62.55
2023-02-27T14:09:37.070Z,62.52
2023-02-27T14:12:03.309Z,62.76
2023-02-27T14:14:29.518Z,62.67
2023-02-27T14:16:55.713Z,62.67
2023-02-27T14:19:21.946Z,62.50
2023-02-27T14:21:48.082Z,62.42
2023-02-27T14:24:14.314Z,62.79
2023-02-27T14:26:40.495Z,62.60
2023-02-27T14:29:06.653Z,62.50
2023-02-27T14:31:32.894Z,62.48
2023-02-27T14:33:59.086Z,62.52
2023-02-27T14:36:25.264Z,62.58
2023-02-27T14:38:51.878Z,62.49
2023-02-27T14:41:18.046Z,62.58
2023-02-27T14:43:44.146Z,62.42
2023-02-27T14:46:10.327Z,62.55
2023-02-27T14:48:36.463Z,62.42
2023-02-27T14:51:02.609Z,62.72
2023-02-27T14:53:28.756Z,62.44
2023-02-27T14:55:54.863Z,62.44
2023-02-27T14:58:20.968Z,62.34
2023-02-27T15:00:47.067Z,62.44
2023-02-27T15:03:13.189Z,62.56
2023-02-27T15:05:39.294Z,62.56
2023-02-27T15:08:05.420Z,62.51
2023-02-27T15:10:31.539Z,62.45
2023-02-27T15:12:57.676Z,62.56
2023-02-27T15:15:23.786Z,62.74
2023-02-27T15:17:49.882Z,62.64
2023-02-27T15:20:19.062Z,62.42
2023-02-27T15:22:45.183Z,62.65
2023-02-27T15:25:11.297Z,62.54
2023-02-27T15:27:37.415Z,62.49
2023-02-27T15:30:03.747Z,62.38
2023-02-27T15:32:29.868Z,62.30
2023-02-27T15:34:56.085Z,62.39
2023-02-27T15:37:22.201Z,62.38
2023-02-27T15:39:48.291Z,62.56
2023-02-27T15:42:14.382Z,62.34
2023-02-27T15:44:40.546Z,62.80
2023-02-27T15:47:06.638Z,62.42
2023-02-27T15:49:32.751Z,62.33
2023-02-27T15:51:58.992Z,62.67
2023-02-27T15:54:25.094Z,62.45
2023-02-27T15:56:51.216Z,62.52
2023-02-27T15:59:17.324Z,62.59
2023-02-27T16:01:43.451Z,62.27
2023-02-27T16:04:09.546Z,62.45
2023-02-27T16:06:35.773Z,62.35
2023-02-27T16:09:01.942Z,62.58
2023-02-27T16:11:28.066Z,62.50
2023-02-27T16:13:54.189Z,62.63
2023-02-27T16:16:20.326Z,62.58
2023-02-27T16:18:46.485Z,62.43
2023-02-27T16:21:12.594Z,62.49
2023-02-27T16:23:38.718Z,62.65
2023-02-27T16:26:04.856Z,62.32
2023-02-27T16:28:30.958Z,62.71
2023-02-27T16:30:57.061Z,62.29
2023-02-27T16:33:23.155Z,62.72
2023-02-27T16:35:49.396Z,62.59
2023-02-27T16:38:15.562Z,62.41
2023-02-27T16:40:41.726Z,62.55
2023-02-27T16:43:07.908Z,62.39
2023-02-27T16:45:34.021Z,62.50
2023-02-27T16:48:00.168Z,62.34
2023-02-27T16:50:26.288Z,62.65
2023-02-27T16:52:52.410Z,62.61
2023-02-27T16:55:18.530Z,62.64
2023-02-27T16:57:44.622Z,62.61
2023-02-27T17:00:10.700Z,62.70
2023-02-27T17:02:38.548Z,62.57
2023-02-27T17:05:04.724Z,62.55
2023-02-27T17:07:30.828Z,62.31
2023-02-27T17:09:57.073Z,62.34
2023-02-27T17:12:23.204Z,62.30
2023-02-27T17:14:49.304Z,62.33
2023-02-27T17:17:15.412Z,62.23
2023-02-27T17:19:41.551Z,62.45
2023-02-27T17:22:07.693Z,62.26
2023-02-27T17:24:33.846Z,62.33
2023-02-27T17:26:59.958Z,62.22
2023-02-27T17:29:26.060Z,62.25
2023-02-27T17:31:52.215Z,62.54
2023-02-27T17:34:18.392Z,62.48
2023-02-27T17:36:44.540Z,62.29
2023-02-27T17:39:10.662Z,62.59
2023-02-27T17:41:36.916Z,62.25
2023-02-27T17:44:03.081Z,62.40
2023-02-27T17:46:29.466Z,62.37
2023-02-27T17:48:55.911Z,62.61
2023-02-27T17:51:22.026Z,62.61
2023-02-27T17:53:48.151Z,62.61
2023-02-27T17:56:15.051Z,62.21
2023-02-27T17:58:41.142Z,62.50
2023-02-27T18:01:07.302Z,62.33
2023-02-27T18:03:33.478Z,62.22
2023-02-27T18:05:59.574Z,62.34
2023-02-27T18:08:25.690Z,62.27
2023-02-27T18:10:51.815Z,62.33
2023-02-27T18:13:17.973Z,62.36
2023-02-27T18:15:44.133Z,62.12
2023-02-27T18:18:10.415Z,62.05
2023-02-27T18:20:36.520Z,62.46
2023-02-27T18:23:02.629Z,62.13
2023-02-27T18:25:28.759Z,62.39
2023-02-27T18:27:54.883Z,62.34
2023-02-27T18:30:21.065Z,62.42
2023-02-27T18:32:47.206Z,62.29
2023-02-27T18:35:13.297Z,62.39
2023-02-27T18:37:39.416Z,62.05
2023-02-27T18:40:05.529Z,62.47
2023-02-27T18:42:31.637Z,62.51
2023-02-27T18:44:57.798Z,62.22
2023-02-27T18:47:23.987Z,62.45
2023-02-27T18:49:50.079Z,62.12
2023-02-27T18:52:16.185Z,62.33
2023-02-27T18:54:42.797Z,62.03
2023-02-27T18:57:08.987Z,62.33
2023-02-27T18:59:35.138Z,62.32
2023-02-27T19:02:01.304Z,61.96
2023-02-27T19:04:27.432Z,62.25
2023-02-27T19:06:53.608Z,62.29
2023-02-27T19:09:21.958Z,62.06
2023-02-27T19:11:48.246Z,61.95
2023-02-27T19:14:14.352Z,61.97
2023-02-27T19:16:40.514Z,62.30
2023-02-27T19:19:06.696Z,62.26
2023-02-27T19:21:32.797Z,62.32
2023-02-27T19:23:58.918Z,62.21
2023-02-27T19:26:25.066Z,62.01
2023-02-27T19:28:51.178Z,62.38
2023-02-27T19:31:17.335Z,62.29
2023-02-27T19:33:43.460Z,62.06
2023-02-27T19:36:09.549Z,62.15
2023-02-27T19:38:35.661Z,62.34
2023-02-27T19:41:01.756Z,62.16
2023-02-27T19:43:27.843Z,62.04
2023-02-27T19:45:53.963Z,62.35
2023-02-27T19:48:20.083Z,62.34
2023-02-27T19:50:46.198Z,62.43
2023-02-27T19:53:12.382Z,62.07
2023-02-27T19:55:38.516Z,62.51
2023-02-27T19:58:04.647Z,62.42
2023-02-27T20:00:30.876Z,62.49
2023-02-27T20:02:57.027Z,62.29
2023-02-27T20:05:23.161Z,62.36
2023-02-27T20:07:49.302Z,62.24
2023-02-27T20:10:15.443Z,62.32
2023-02-27T20:12:41.550Z,62.12
2023-02-27T20:15:07.660Z,62.25
2023-02-27T20:17:33.817Z,62.27
2023-02-27T20:19:59.934Z,62.36
2023-02-27T20:22:26.051Z,62.35
2023-02-27T20:24:52.152Z,62.44
2023-02-27T20:27:18.249Z,62.49
2023-02-27T20:29:44.371Z,62.06
2023-02-27T20:32:10.584Z,62.42
2023-02-27T20:34:36.732Z,62.34
2023-02-27T20:37:02.965Z,62.21
2023-02-27T20:39:29.073Z,62.40
2023-02-27T20:41:55.199Z,62.18
2023-02-27T20:44:21.347Z,62.44
2023-02-27T20:46:49.274Z,62.35
2023-02-27T20:49:15.772Z,62.44
2023-02-27T20:51:41.917Z,62.41
2023-02-27T20:54:08.035Z,62.33
2023-02-27T20:56:34.159Z,62.14
2023-02-27T20:59:00.335Z,62.26
2023-02-27T21:01:26.601Z,62.27
2023-02-27T21:03:52.822Z,62.52
2023-02-27T21:06:19.074Z,62.50
2023-02-27T21:08:45.178Z,62.36
2023-02-27T21:11:11.311Z,62.63
2023-02-27T21:13:37.477Z,62.20
2023-02-27T21:16:03.730Z,62.37
2023-02-27T21:18:29.926Z,62.46
2023-02-27T21:20:56.052Z,62.40
2023-02-27T21:23:22.186Z,62.36
2023-02-27T21:25:48.271Z,62.41
2023-02-27T21:28:14.390Z,62.61
2023-02-27T21:30:40.607Z,62.44
2023-02-27T21:33:06.707Z,62.64
2023-02-27T21:35:32.917Z,62.28
2023-02-27T21:37:59.080Z,62.54
2023-02-27T21:40:25.216Z,62.61
2023-02-27T21:42:51.364Z,62.29
2023-02-27T21:45:17.470Z,62.17
2023-02-27T21:47:43.743Z,62.55
2023-02-27T21:50:09.897Z,62.19
2023-02-27T21:52:35.991Z,62.27
2023-02-27T21:55:02.175Z,62.32
2023-02-27T21:57:28.313Z,62.31
2023-02-27T21:59:54.493Z,62.58
2023-02-27T22:02:20.626Z,62.27
2023-02-27T22:04:46.831Z,62.40
2023-02-27T22:07:12.925Z,62.63
2023-02-27T22:09:39.046Z,62.54
2023-02-27T22:12:05.211Z,62.39
2023-02-27T22:14:31.318Z,62.47
2023-02-27T22:16:57.409Z,62.29
2023-02-27T22:19:23.531Z,62.29
2023-02-27T22:21:49.628Z,62.52
2023-02-27T22:24:15.741Z,62.36
2023-02-27T22:26:41.940Z,62.45
2023-02-27T22:29:08.065Z,62.50
2023-02-27T22:31:34.446Z,62.79
2023-02-27T22:34:00.775Z,62.65
2023-02-27T22:36:26.894Z,62.78
2023-02-27T22:38:53.048Z,62.82
2023-02-27T22:41:19.216Z,62.55
2023-02-27T22:43:45.321Z,62.85
2023-02-27T22:46:11.483Z,62.83
2023-02-27T22:48:37.716Z,62.54
2023-02-27T22:51:03.844Z,62.89
2023-02-27T22:53:30.062Z,62.67
2023-02-27T22:55:56.257Z,62.50
2023-02-27T22:58:22.439Z,62.86
2023-02-27T23:00:48.548Z,62.43
2023-02-27T23:03:14.769Z,62.55
2023-02-27T23:05:40.899Z,62.83
2023-02-27T23:08:07.016Z,62.68
2023-02-27T23:10:33.212Z,62.48
2023-02-27T23:12:59.619Z,62.76
2023-02-27T23:15:25.734Z,62.75
2023-02-27T23:17:58.294Z,62.86
2023-02-27T23:20:24.930Z,62.53
2023-02-27T23:22:51.035Z,62.54
2023-02-27T23:25:17.140Z,62.52
2023-02-27T23:27:43.265Z,62.86
2023-02-27T23:30:09.453Z,62.73
2023-02-27T23:32:35.664Z,62.89
2023-02-27T23:35:01.900Z,62.90
2023-02-27T23:37:28.099Z,62.82
2023-02-27T23:39:54.247Z,62.87
2023-02-27T23:42:20.346Z,62.98
2023-02-27T23:44:46.526Z,62.55
2023-02-27T23:47:12.806Z,62.64
2023-02-27T23:49:38.959Z,62.87
2023-02-27T23:52:05.159Z,62.60
2023-02-27T23:54:31.368Z,62.89
2023-02-27T23:56:57.569Z,62.95
2023-02-27T23:59:23.696Z,62.72
